• Join FlightAware (Why Join?)
  • Login
  • US Flag 
07:52PM EDT


 

Airport Tracker/Info


-or-


 

Live Flight TrackerFlight Track Log ✈ CCA4491 ✈ 21-Aug-2013 ✈ ZUUU / CTU - ZUJZ / JZH

Flight Track Log - Related Links

Times and Time Zones

All times are in EDT time to prevent confusion due to time zone crossing. See the CCA4491 flight status page for this flight to view local times or setup timezone preferences in your user account.

Time Position Orientation Groundspeed Altitude Reporting Facility
EDT Latitude Longitude Course Direction KTS MPH feet Rate Location/Type
06:29PM 30.5780 103.9470 41° Northeast 160 184  Level FlightAware
06:29PM 30.5970 103.9560 22° Northeast 163 188 3,000 5,040 Climbing FlightAware
06:29PM 30.6100 103.9620 22° Northeast 165 190 3,800 2,040 Climbing FlightAware
06:30PM 30.6190 103.9660 21° North 170 196 4,100 1,800 Climbing FlightAware
06:30PM 30.6370 103.9750 23° Northeast 175 201 4,900 1,740 Climbing FlightAware
06:30PM 30.6530 103.9820 21° North 192 221 5,400 1,260 Climbing FlightAware
06:31PM 30.6710 103.9910 23° Northeast 214 246 5,800 1,260 Climbing FlightAware
06:31PM 30.6920 104.0020 24° Northeast 240 276 6,300 1,440 Climbing FlightAware
06:31PM 30.6980 104.0080 41° Northeast 249 287 6,500 1,800 Climbing FlightAware
06:31PM 30.7080 104.0210 48° Northeast 264 304 6,900 1,860 Climbing FlightAware
06:32PM 30.7210 104.0460 59° Northeast 285 328 7,500 2,280 Climbing FlightAware
06:32PM 30.7360 104.0800 63° Northeast 291 335 8,600 3,000 Climbing FlightAware
06:32PM 30.7480 104.1080 63° Northeast 292 336 9,700 2,460 Climbing FlightAware
06:33PM 30.7680 104.1550 64° Northeast 317 365 10,800 1,500 Climbing FlightAware
06:34PM 30.7940 104.2120 62° Northeast 359 413 11,400 1,380 Climbing FlightAware
06:34PM 30.8240 104.2810 63° Northeast 381 438 12,500 1,920 Climbing FlightAware
06:35PM 30.8510 104.3450 64° Northeast 390 449 13,800 2,040 Climbing FlightAware
06:35PM 30.8780 104.4000 60° Northeast 400 460 14,700 1,740 Climbing FlightAware
06:36PM 30.8940 104.4170 42° Northeast 404 465 15,000 1,800 Climbing FlightAware
06:36PM 30.9290 104.4360 25° Northeast 406 467 15,700 1,860 Climbing FlightAware
06:36PM 30.9940 104.4430 North 416 479 16,700 1,800 Climbing FlightAware
06:37PM 31.0350 104.4420 359° North 419 482 17,400 1,740 Climbing FlightAware
06:37PM 31.1060 104.4390 358° North 428 493 18,400 1,860 Climbing FlightAware
06:38PM 31.1710 104.4360 358° North 428 493 19,600 1,680 Climbing FlightAware
06:39PM 31.2430 104.4320 357° North 439 505 20,400 1,380 Climbing FlightAware
06:39PM 31.3180 104.4280 357° North 444 511 21,300 1,740 Climbing FlightAware
06:40PM 31.3830 104.4250 358° North 439 505 22,400 1,920 Climbing FlightAware
06:40PM 31.4560 104.4210 357° North 432 497 23,500 960 Climbing FlightAware
06:41PM 31.5280 104.4180 358° North 434 499 23,600 60 Climbing FlightAware
06:41PM 31.6010 104.4150 358° North 436 502 23,600  Level FlightAware
06:42PM 31.6700 104.4110 357° North 436 502 23,600  Level FlightAware
06:43PM 31.7420 104.4080 358° North 437 503 23,600  Level FlightAware
06:43PM 31.8140 104.4040 357° North 436 502 23,600  Level FlightAware
06:44PM 31.8770 104.4010 358° North 435 501 23,600  Level FlightAware
06:44PM 31.9500 104.3980 358° North 436 502 23,600  Level FlightAware
06:45PM 32.0280 104.3940 358° North 435 501 23,600  Level FlightAware
06:46PM 32.1010 104.3840 353° North 437 503 23,600  Level FlightAware
06:46PM 32.1620 104.3700 349° North 439 505 23,600  Level FlightAware
06:47PM 32.2370 104.3540 350° North 440 506 23,600  Level FlightAware
06:47PM 32.3010 104.3400 350° North 439 505 23,600 -480 Level FlightAware
06:48PM 32.3690 104.3250 349° North 409 471 23,100 -960 Descending FlightAware
06:48PM 32.4370 104.3140 352° North 381 438 22,500 -1,080 Descending FlightAware
06:49PM 32.4630 104.3050 344° North 378 435 22,200 -1,080 Descending FlightAware
06:49PM 32.5020 104.2790 331° Northwest 374 430 21,800 -420 Descending FlightAware
06:50PM 32.5490 104.2370 323° Northwest 374 430 21,800 -1,140 Level FlightAware
06:50PM 32.5570 104.1950 283° West 365 420 20,800 -1,500 Descending FlightAware
06:51PM 32.5740 104.1300 287° West 363 418 20,500 -300 Descending FlightAware
06:51PM 32.5890 104.0720 287° West 363 418 20,500  Level FlightAware
06:52PM 32.6040 104.0140 287° West 363 418 20,500  Level FlightAware
06:52PM 32.6190 103.9550 287° West 363 418 20,500  Level FlightAware
06:53PM 32.6340 103.8970 287° West 363 418 20,500  Level FlightAware
06:54PM 32.6490 103.8390 287° West 363 418 20,500  Level FlightAware
06:56PM 32.7660 103.7513 328° Northwest  Level Estimated
06:57PM 32.8304 103.7030 328° Northwest  Level Estimated
06:58PM 32.8570 103.6830 328° Northwest  Level Estimated
06:59PM 32.8570 103.6830 North  Level Estimated
07:00PM 32.8570 103.6830 North  Level Estimated
07:01PM 32.8570 103.6830 North  Level Estimated
07:02PM 32.8570 103.6830 North  Level Estimated
07:03PM 32.8570 103.6830 North  Level Estimated
07:04PM 32.8570 103.6830 North  Level Estimated
07:05PM 32.8570 103.6830 North  Level Estimated
07:06PM 32.8570 103.6830 North  Level Estimated
07:07PM 32.8570 103.6830 North  Level Estimated
07:08PM 32.8570 103.6830 North  Level Estimated
07:09PM 32.8570 103.6830 North  Level Estimated
07:10PM 32.8570 103.6830 North  Level Estimated